Millardsville, Pennsylvania
Current Conditions -  °F | °C
As of 3:58 PM on Thursday 23 Oct 2014 (Local Time) from KMUI Reporting Station
Overcast Overcast  
Wind Chill: 14°   Ceiling: 3300
Heat Index: 14°   Visibility: 10mi
Dew Point:   Wind: 7mph
Humidity: 68%   Direction: NA
Pressure: 29.83"   Gusts: 18mph
Location:  40.3869°N, 76.3173°W
Report Text: KMUI 231958Z AUTO VRB06G16KT 10SM OVC033 14/08 A2983 RMK AO2 SLP104 T01420084 $
Loading
Personal Weather Stations






























Interactive Weather Map
Tropical Storm Tracking
New forecast layout! Learn more

10-Day Weather Forecast

Advertisements
Track Severe Weather on mobile